createdAt,value
2023-03-11T00:01:13.975Z,6.07
2023-03-11T00:03:42.921Z,6.22
2023-03-11T00:06:11.971Z,5.40
2023-03-11T00:08:42.125Z,5.95
2023-03-11T00:11:12.806Z,6.68
2023-03-11T00:13:42.127Z,6.18
2023-03-11T00:16:11.701Z,7.38
2023-03-11T00:18:40.776Z,6.47
2023-03-11T00:21:17.958Z,6.88
2023-03-11T00:23:47.033Z,6.15
2023-03-11T00:26:17.679Z,6.30
2023-03-11T00:28:46.627Z,6.07
2023-03-11T00:31:15.682Z,6.60
2023-03-11T00:33:44.861Z,7.00
2023-03-11T00:36:23.747Z,7.38
2023-03-11T00:38:52.834Z,7.63
2023-03-11T00:41:23.599Z,7.70
2023-03-11T00:43:52.596Z,7.28
2023-03-11T00:46:21.679Z,8.05
2023-03-11T00:48:53.017Z,10.73
2023-03-11T00:51:22.025Z,7.95
2023-03-11T00:53:51.037Z,8.10
2023-03-11T00:56:20.028Z,8.20
2023-03-11T00:58:50.697Z,7.97
2023-03-11T01:01:22.344Z,8.57
2023-03-11T01:03:51.346Z,8.95
2023-03-11T01:06:20.304Z,8.63
2023-03-11T01:08:49.254Z,8.73
2023-03-11T01:11:18.257Z,10.70
2023-03-11T01:13:47.379Z,9.50
2023-03-11T01:16:18.280Z,9.98
2023-03-11T01:18:47.344Z,8.70
2023-03-11T01:21:16.623Z,10.95
2023-03-11T01:23:45.811Z,11.63
2023-03-11T01:26:16.372Z,9.77
2023-03-11T01:28:45.435Z,6.93
2023-03-11T01:31:14.507Z,5.57
2023-03-11T01:33:45.150Z,5.18
2023-03-11T01:36:14.147Z,3.80
2023-03-11T01:38:43.192Z,4.45
2023-03-11T01:41:13.743Z,2.95
2023-03-11T01:43:55.504Z,2.63
2023-03-11T01:46:25.867Z,2.67
2023-03-11T01:48:58.055Z,1.77
2023-03-11T01:51:31.299Z,2.00
2023-03-11T01:54:04.535Z,3.28
2023-03-11T01:56:34.086Z,1.90
2023-03-11T01:59:03.554Z,1.98
2023-03-11T02:01:32.816Z,1.88
2023-03-11T02:04:05.055Z,2.67
2023-03-11T02:06:34.505Z,2.30
2023-03-11T02:09:03.561Z,1.73
2023-03-11T02:11:32.824Z,1.60
2023-03-11T02:14:04.664Z,1.95
2023-03-11T02:16:34.538Z,2.33
2023-03-11T02:19:12.528Z,2.20
2023-03-11T02:21:41.912Z,2.75
2023-03-11T02:24:18.371Z,2.20
2023-03-11T02:26:57.429Z,3.10
2023-03-11T02:29:28.400Z,2.95
2023-03-11T02:31:58.088Z,2.28
2023-03-11T02:34:29.262Z,2.22
2023-03-11T02:36:59.936Z,2.60
2023-03-11T02:39:33.998Z,2.38
2023-03-11T02:42:08.484Z,2.75
2023-03-11T02:44:38.637Z,2.90
2023-03-11T02:47:08.565Z,4.57
2023-03-11T02:49:37.973Z,3.97
2023-03-11T02:52:07.496Z,3.65
2023-03-11T02:54:36.458Z,3.33
2023-03-11T02:57:07.136Z,3.08
2023-03-11T02:59:36.131Z,4.05
2023-03-11T03:02:05.093Z,3.42
2023-03-11T03:04:34.055Z,4.35
2023-03-11T03:07:03.282Z,4.50
2023-03-11T03:09:32.429Z,5.55
2023-03-11T03:12:01.407Z,5.25
2023-03-11T03:14:32.493Z,6.03
2023-03-11T03:17:01.543Z,6.03
2023-03-11T03:19:30.568Z,6.35
2023-03-11T03:21:59.616Z,6.65
2023-03-11T03:24:28.666Z,7.57
2023-03-11T03:26:57.648Z,8.63
2023-03-11T03:29:26.659Z,9.68
2023-03-11T03:31:57.352Z,10.63
2023-03-11T03:34:26.461Z,10.98
2023-03-11T03:36:55.460Z,74.88
2023-03-11T03:39:24.804Z,35.40
2023-03-11T03:41:53.804Z,35.50
2023-03-11T03:44:22.784Z,32.70
2023-03-11T03:46:51.733Z,22.38
2023-03-11T03:49:22.378Z,16.35
2023-03-11T03:51:51.293Z,17.50
2023-03-11T03:54:20.398Z,18.48
2023-03-11T03:56:49.453Z,15.10
2023-03-11T03:59:18.448Z,15.25
2023-03-11T04:01:47.449Z,16.13
2023-03-11T04:04:16.479Z,15.57
2023-03-11T04:06:47.119Z,15.27
2023-03-11T04:09:16.372Z,17.90
2023-03-11T04:11:45.316Z,16.05
2023-03-11T04:14:15.205Z,18.48
2023-03-11T04:16:44.336Z,19.38
2023-03-11T04:19:13.696Z,19.83
2023-03-11T04:21:42.748Z,20.00
2023-03-11T04:24:13.530Z,19.95
2023-03-11T04:26:42.617Z,20.33
2023-03-11T04:29:11.580Z,23.08
2023-03-11T04:31:40.521Z,21.58
2023-03-11T04:34:09.861Z,21.30
2023-03-11T04:36:38.918Z,21.05
2023-03-11T04:39:07.940Z,20.88
2023-03-11T04:41:38.869Z,22.40
2023-03-11T04:44:07.978Z,23.17
2023-03-11T04:46:37.031Z,24.13
2023-03-11T04:49:06.166Z,24.85
2023-03-11T04:51:35.119Z,23.88
2023-03-11T04:54:04.326Z,23.33
2023-03-11T04:56:33.348Z,24.23
2023-03-11T04:59:04.063Z,22.15
2023-03-11T05:01:33.186Z,21.92
2023-03-11T05:04:02.178Z,24.50
2023-03-11T05:06:31.224Z,22.55
2023-03-11T05:09:00.173Z,21.60
2023-03-11T05:11:29.105Z,22.17
2023-03-11T05:13:58.273Z,22.58
2023-03-11T05:16:28.940Z,23.38
2023-03-11T05:18:57.927Z,23.55
2023-03-11T05:21:26.944Z,21.50
2023-03-11T05:23:55.978Z,21.42
2023-03-11T05:26:24.908Z,24.85
2023-03-11T05:28:53.912Z,21.02
2023-03-11T05:31:22.882Z,20.85
2023-03-11T05:33:53.563Z,16.58
2023-03-11T05:36:22.552Z,14.30
2023-03-11T05:38:51.574Z,12.95
2023-03-11T05:41:20.766Z,10.23
2023-03-11T05:43:49.765Z,11.07
2023-03-11T05:46:19.266Z,8.80
2023-03-11T05:48:48.852Z,8.57
2023-03-11T05:51:19.480Z,7.68
2023-03-11T05:53:50.124Z,7.90
2023-03-11T05:56:20.470Z,9.50
2023-03-11T05:58:49.691Z,9.77
2023-03-11T06:01:19.993Z,7.45
2023-03-11T06:03:49.075Z,5.85
2023-03-11T06:06:19.823Z,5.30
2023-03-11T06:08:50.995Z,4.55
2023-03-11T06:11:20.152Z,4.15
2023-03-11T06:13:49.103Z,4.78
2023-03-11T06:16:18.338Z,5.47
2023-03-11T06:18:47.330Z,3.83
2023-03-11T06:21:20.361Z,4.07
2023-03-11T06:23:50.042Z,5.57
2023-03-11T06:26:21.305Z,5.15
2023-03-11T06:28:51.398Z,4.45
2023-03-11T06:31:22.409Z,4.85
2023-03-11T06:33:51.378Z,3.65
2023-03-11T06:36:22.931Z,4.68
2023-03-11T06:38:54.123Z,2.92
2023-03-11T06:41:23.121Z,3.47
2023-03-11T06:43:52.058Z,4.00
2023-03-11T06:46:22.370Z,3.67
2023-03-11T06:48:54.168Z,5.50
2023-03-11T06:51:24.837Z,4.88
2023-03-11T06:53:54.706Z,5.22
2023-03-11T06:56:24.966Z,4.70
2023-03-11T06:58:55.636Z,3.28
2023-03-11T07:01:26.483Z,3.95
2023-03-11T07:03:55.546Z,3.55
2023-03-11T07:06:28.092Z,3.60
2023-03-11T07:08:57.234Z,3.63
2023-03-11T07:11:27.335Z,2.53
2023-03-11T07:13:56.589Z,2.38
2023-03-11T07:16:27.865Z,3.30
2023-03-11T07:18:59.805Z,3.00
2023-03-11T07:21:32.354Z,4.13
2023-03-11T07:24:02.836Z,2.92
2023-03-11T07:26:33.029Z,2.75
2023-03-11T07:29:02.500Z,3.00
2023-03-11T07:31:33.142Z,3.13
2023-03-11T07:34:03.941Z,3.55
2023-03-11T07:36:34.702Z,3.40
2023-03-11T07:39:06.342Z,3.50
2023-03-11T07:41:36.642Z,3.70
2023-03-11T07:44:06.363Z,3.95
2023-03-11T07:46:35.877Z,5.10
2023-03-11T07:49:05.179Z,4.53
2023-03-11T07:51:37.160Z,4.28
2023-03-11T07:54:06.884Z,4.53
2023-03-11T07:56:36.885Z,4.50
2023-03-11T07:59:06.752Z,6.35
2023-03-11T08:01:41.827Z,4.82
2023-03-11T08:04:14.647Z,5.20
2023-03-11T08:06:47.728Z,5.72
2023-03-11T08:09:16.932Z,6.20
2023-03-11T08:11:46.468Z,6.65
2023-03-11T08:14:16.116Z,6.40
2023-03-11T08:16:45.199Z,7.18
2023-03-11T08:19:15.141Z,10.80
2023-03-11T08:21:46.020Z,6.60
2023-03-11T08:24:15.702Z,7.13
2023-03-11T08:26:44.793Z,6.90
2023-03-11T08:29:13.816Z,7.45
2023-03-11T08:31:42.836Z,6.88
2023-03-11T08:34:12.813Z,7.38
2023-03-11T08:36:42.225Z,6.90
2023-03-11T08:39:12.912Z,6.50
2023-03-11T08:41:41.973Z,7.75
2023-03-11T08:44:10.959Z,5.85
2023-03-11T08:46:40.454Z,5.57
2023-03-11T08:49:09.571Z,5.55
2023-03-11T08:51:39.359Z,6.03
2023-03-11T08:54:08.451Z,4.63
2023-03-11T08:56:39.107Z,6.07
2023-03-11T08:59:09.537Z,5.60
2023-03-11T09:01:38.561Z,4.55
2023-03-11T09:04:07.526Z,4.82
2023-03-11T09:06:36.504Z,4.60
2023-03-11T09:09:05.848Z,4.45
2023-03-11T09:11:38.225Z,5.03
2023-03-11T09:14:09.060Z,5.78
2023-03-11T09:16:38.149Z,5.90
2023-03-11T09:19:08.510Z,6.60
2023-03-11T09:21:38.224Z,8.05
2023-03-11T09:24:08.338Z,7.85
2023-03-11T09:26:37.558Z,8.95
2023-03-11T09:29:08.189Z,7.07
2023-03-11T09:31:37.184Z,7.43
2023-03-11T09:34:06.960Z,6.63
2023-03-11T09:36:35.989Z,7.78
2023-03-11T09:39:05.009Z,6.95
2023-03-11T09:41:51.537Z,5.97
2023-03-11T09:44:34.500Z,5.50
2023-03-11T09:47:41.715Z,5.20
2023-03-11T09:50:30.825Z,6.90
2023-03-11T09:53:20.506Z,4.47
2023-03-11T09:55:52.602Z,3.60
2023-03-11T09:58:31.047Z,3.33
2023-03-11T10:01:02.675Z,3.05
2023-03-11T10:03:34.116Z,2.50
2023-03-11T10:06:15.155Z,2.97
2023-03-11T10:08:57.876Z,2.90
2023-03-11T10:11:45.629Z,3.42
2023-03-11T10:14:43.852Z,2.70
2023-03-11T10:17:26.602Z,2.90
2023-03-11T10:20:03.462Z,3.47
2023-03-11T10:22:39.772Z,3.95
2023-03-11T10:27:45.440Z,1.80
2023-03-11T10:30:25.126Z,1.40
2023-03-11T10:33:00.442Z,1.70
2023-03-11T10:35:40.145Z,3.33
2023-03-11T10:38:16.098Z,1.27
2023-03-11T10:40:47.042Z,3.13
2023-03-11T10:43:19.826Z,1.15
2023-03-11T10:45:51.995Z,1.48
2023-03-11T10:48:23.693Z,1.65
2023-03-11T10:50:58.583Z,1.38
2023-03-11T10:53:27.551Z,1.48
2023-03-11T10:55:59.082Z,1.05
2023-03-11T10:58:29.871Z,1.60
2023-03-11T11:01:04.144Z,2.03
2023-03-11T11:03:34.896Z,1.50
2023-03-11T11:06:06.287Z,4.38
2023-03-11T11:08:35.548Z,2.40
2023-03-11T11:11:06.389Z,1.52
2023-03-11T11:13:36.331Z,1.48
2023-03-11T11:16:07.301Z,2.78
2023-03-11T11:18:43.887Z,1.83
2023-03-11T11:21:18.207Z,1.92
2023-03-11T11:23:51.251Z,2.35
2023-03-11T11:26:24.220Z,3.92
2023-03-11T11:29:09.204Z,2.10
2023-03-11T11:31:39.566Z,3.85
2023-03-11T11:34:28.461Z,2.28
2023-03-11T11:36:59.475Z,3.15
2023-03-11T11:39:30.301Z,2.00
2023-03-11T11:42:00.431Z,1.60
2023-03-11T11:44:34.948Z,2.30
2023-03-11T11:47:14.232Z,3.63
2023-03-11T11:49:53.998Z,1.48
2023-03-11T11:52:27.457Z,3.35
2023-03-11T11:55:02.878Z,3.10
2023-03-11T11:57:32.723Z,1.70
2023-03-11T12:00:06.379Z,2.38
2023-03-11T12:02:47.593Z,2.35
2023-03-11T12:05:23.016Z,2.28
2023-03-11T12:08:06.381Z,2.22
2023-03-11T12:10:40.642Z,1.70
2023-03-11T12:13:31.026Z,3.35
2023-03-11T12:16:07.137Z,1.77
2023-03-11T12:18:41.153Z,2.92
2023-03-11T12:21:24.583Z,1.67
2023-03-11T12:24:04.859Z,1.58
2023-03-11T12:26:37.400Z,1.00
2023-03-11T12:29:15.678Z,1.35
2023-03-11T12:31:45.565Z,1.58
2023-03-11T12:34:18.556Z,1.38
2023-03-11T12:36:50.911Z,1.40
2023-03-11T12:39:25.978Z,1.40
2023-03-11T12:42:20.452Z,1.45
2023-03-11T12:44:50.403Z,1.98
2023-03-11T12:47:24.328Z,2.08
2023-03-11T12:49:55.740Z,1.98
2023-03-11T12:52:28.782Z,1.33
2023-03-11T12:55:38.596Z,2.42
2023-03-11T12:58:40.593Z,0.85
2023-03-11T13:01:26.292Z,1.98
2023-03-11T13:04:06.825Z,0.90
2023-03-11T13:07:05.940Z,1.08
2023-03-11T13:09:36.798Z,2.08
2023-03-11T13:12:26.950Z,3.95
2023-03-11T13:15:28.334Z,1.55
2023-03-11T13:18:02.445Z,1.10
2023-03-11T13:20:52.356Z,2.28
2023-03-11T13:23:35.158Z,0.82
2023-03-11T13:26:37.233Z,1.02
2023-03-11T13:29:41.157Z,1.58
2023-03-11T13:32:43.073Z,2.35
2023-03-11T13:35:23.647Z,1.02
2023-03-11T13:38:14.443Z,1.35
2023-03-11T13:40:45.364Z,1.20
2023-03-11T13:43:20.137Z,1.60
2023-03-11T13:45:54.541Z,1.30
2023-03-11T13:48:29.776Z,2.35
2023-03-11T13:51:03.287Z,1.88
2023-03-11T13:53:37.101Z,1.60
2023-03-11T13:56:06.674Z,1.90
2023-03-11T13:58:37.287Z,1.92
2023-03-11T14:01:06.500Z,2.25
2023-03-11T14:03:42.171Z,1.75
2023-03-11T14:06:17.494Z,3.13
2023-03-11T14:08:56.043Z,2.30
2023-03-11T14:11:30.076Z,1.65
2023-03-11T14:14:02.601Z,2.25
2023-03-11T14:16:36.720Z,1.60
2023-03-11T14:19:13.135Z,2.50
2023-03-11T14:21:44.732Z,3.17
2023-03-11T14:24:19.163Z,2.65
2023-03-11T14:26:51.404Z,1.50
2023-03-11T14:29:25.297Z,1.73
2023-03-11T14:31:54.487Z,2.67
2023-03-11T14:34:26.244Z,3.05
2023-03-11T14:36:58.160Z,3.65
2023-03-11T14:39:30.511Z,2.63
2023-03-11T14:42:05.592Z,2.55
2023-03-11T14:44:40.464Z,4.13
2023-03-11T14:47:17.512Z,2.33
2023-03-11T14:49:49.131Z,1.83
2023-03-11T14:52:22.120Z,3.38
2023-03-11T14:54:54.311Z,2.45
2023-03-11T14:57:30.520Z,2.53
2023-03-11T15:00:01.365Z,1.83
2023-03-11T15:02:40.988Z,1.52
2023-03-11T15:05:17.857Z,1.80
2023-03-11T15:07:47.573Z,1.95
2023-03-11T15:10:16.929Z,1.70
2023-03-11T15:12:46.784Z,4.05
2023-03-11T15:15:28.321Z,3.03
2023-03-11T15:17:58.425Z,2.38
2023-03-11T15:20:31.869Z,1.55
2023-03-11T15:23:02.988Z,2.45
2023-03-11T15:25:34.238Z,1.85
2023-03-11T15:28:22.088Z,1.65
2023-03-11T15:30:53.436Z,1.70
2023-03-11T15:33:25.065Z,3.50
2023-03-11T15:35:54.304Z,2.65
2023-03-11T15:38:26.338Z,2.65
2023-03-11T15:40:58.580Z,2.92
2023-03-11T15:43:30.991Z,2.58
2023-03-11T15:46:03.615Z,2.72
2023-03-11T15:48:32.723Z,3.67
2023-03-11T15:51:02.600Z,2.40
2023-03-11T15:53:32.407Z,3.53
2023-03-11T15:56:11.757Z,2.15
2023-03-11T15:58:40.824Z,1.95
2023-03-11T16:01:11.425Z,2.50
2023-03-11T16:03:40.745Z,1.42
2023-03-11T16:06:09.823Z,0.88
2023-03-11T16:08:38.802Z,1.23
2023-03-11T16:11:10.699Z,1.35
2023-03-11T16:13:39.656Z,1.50
2023-03-11T16:16:16.702Z,0.95
2023-03-11T16:18:45.751Z,1.00
2023-03-11T16:21:18.849Z,1.83
2023-03-11T16:23:51.890Z,1.52
2023-03-11T16:26:23.585Z,2.17
2023-03-11T16:28:52.554Z,1.88
2023-03-11T16:31:23.275Z,1.02
2023-03-11T16:33:52.328Z,1.20
2023-03-11T16:36:21.278Z,1.65
2023-03-11T16:38:51.957Z,2.75
2023-03-11T16:41:21.780Z,1.95
2023-03-11T16:43:50.749Z,1.23
2023-03-11T16:46:19.830Z,1.00
2023-03-11T16:48:50.484Z,2.38
2023-03-11T16:51:19.453Z,1.60
2023-03-11T16:53:48.443Z,2.97
2023-03-11T16:56:18.912Z,1.08
2023-03-11T16:58:50.666Z,2.13
2023-03-11T17:01:20.008Z,1.98
2023-03-11T17:03:51.627Z,0.98
2023-03-11T17:06:21.587Z,1.85
2023-03-11T17:08:50.887Z,3.55
2023-03-11T17:11:21.712Z,1.85
2023-03-11T17:13:51.203Z,4.18
2023-03-11T17:16:20.530Z,3.90
2023-03-11T17:18:51.250Z,2.03
2023-03-11T17:21:20.403Z,2.00
2023-03-11T17:23:49.569Z,3.05
2023-03-11T17:26:18.834Z,3.15
2023-03-11T17:28:48.215Z,4.15
2023-03-11T17:31:17.988Z,3.15
2023-03-11T17:33:47.621Z,3.05
2023-03-11T17:36:19.018Z,3.38
2023-03-11T17:38:48.548Z,2.95
2023-03-11T17:41:19.176Z,2.30
2023-03-11T17:43:51.216Z,2.30
2023-03-11T17:46:21.655Z,2.13
2023-03-11T17:48:51.944Z,2.00
2023-03-11T17:51:23.866Z,2.28
2023-03-11T17:53:54.823Z,1.77
2023-03-11T17:56:24.217Z,1.58
2023-03-11T17:58:53.469Z,2.45
2023-03-11T18:01:23.941Z,1.50
2023-03-11T18:03:53.370Z,3.28
2023-03-11T18:06:24.402Z,1.48
2023-03-11T18:08:53.686Z,1.50
2023-03-11T18:11:23.979Z,1.55
2023-03-11T18:13:53.356Z,1.85
2023-03-11T18:16:24.442Z,1.42
2023-03-11T18:18:53.575Z,2.22
2023-03-11T18:21:26.482Z,1.83
2023-03-11T18:23:56.564Z,1.63
2023-03-11T18:26:27.465Z,2.15
2023-03-11T18:28:57.622Z,2.03
2023-03-11T18:31:27.865Z,1.88
2023-03-11T18:33:58.399Z,2.03
2023-03-11T18:36:30.648Z,1.90
2023-03-11T18:39:00.599Z,1.95
2023-03-11T18:41:32.457Z,2.40
2023-03-11T18:44:02.144Z,1.90
2023-03-11T18:46:33.369Z,2.03
2023-03-11T18:49:04.299Z,2.50
2023-03-11T18:51:35.044Z,3.08
2023-03-11T18:54:04.635Z,2.10
2023-03-11T18:56:33.568Z,2.13
2023-03-11T18:59:02.542Z,2.10
2023-03-11T19:01:31.599Z,2.10
2023-03-11T19:04:01.651Z,1.83
2023-03-11T19:06:31.127Z,1.70
2023-03-11T19:09:01.854Z,1.83
2023-03-11T19:11:30.846Z,2.15
2023-03-11T19:14:00.762Z,1.58
2023-03-11T19:16:29.976Z,1.85
2023-03-11T19:18:59.010Z,2.20
2023-03-11T19:21:28.157Z,1.85
2023-03-11T19:23:58.519Z,1.77
2023-03-11T19:26:43.773Z,2.35
2023-03-11T19:29:14.429Z,1.77
2023-03-11T19:31:44.566Z,3.65
2023-03-11T19:34:13.608Z,2.75
2023-03-11T19:36:42.671Z,2.22
2023-03-11T19:39:11.722Z,2.05
2023-03-11T19:41:42.306Z,1.67
2023-03-11T19:44:11.328Z,2.63
2023-03-11T19:46:40.613Z,2.15
2023-03-11T19:49:09.664Z,2.42
2023-03-11T19:51:49.678Z,1.75
2023-03-11T19:54:21.770Z,2.20
2023-03-11T19:56:52.488Z,2.28
2023-03-11T19:59:21.423Z,2.60
2023-03-11T20:01:50.461Z,2.70
2023-03-11T20:04:19.559Z,1.88
2023-03-11T20:06:48.717Z,4.10
2023-03-11T20:09:18.503Z,1.98
2023-03-11T20:11:47.604Z,2.08
2023-03-11T20:14:18.338Z,1.92
2023-03-11T20:16:47.471Z,2.63
2023-03-11T20:19:16.679Z,2.20
2023-03-11T20:21:46.174Z,3.80
2023-03-11T20:24:15.347Z,2.10
2023-03-11T20:26:44.433Z,2.72
2023-03-11T20:29:13.448Z,2.40
2023-03-11T20:31:45.330Z,3.08
2023-03-11T20:34:14.685Z,4.80
2023-03-11T20:36:43.858Z,3.35
2023-03-11T20:39:13.035Z,2.63
2023-03-11T20:41:42.449Z,2.17
2023-03-11T20:44:14.439Z,2.70
2023-03-11T20:46:45.172Z,2.40
2023-03-11T20:49:14.174Z,2.47
2023-03-11T20:51:44.673Z,2.55
2023-03-11T20:54:13.813Z,2.45
2023-03-11T20:56:43.320Z,2.40
2023-03-11T20:59:17.319Z,2.30
2023-03-11T21:01:50.108Z,2.47
2023-03-11T21:04:19.207Z,2.95
2023-03-11T21:06:50.597Z,2.20
2023-03-11T21:09:20.538Z,2.88
2023-03-11T21:11:49.568Z,2.22
2023-03-11T21:14:19.534Z,1.98
2023-03-11T21:16:50.499Z,2.17
2023-03-11T21:19:19.780Z,2.20
2023-03-11T21:21:48.828Z,3.60
2023-03-11T21:24:17.906Z,3.97
2023-03-11T21:26:46.923Z,2.30
2023-03-11T21:29:16.070Z,3.15
2023-03-11T21:31:45.103Z,2.30
2023-03-11T21:34:15.932Z,3.15
2023-03-11T21:36:45.027Z,3.08
2023-03-11T21:39:15.512Z,2.05
2023-03-11T21:41:44.554Z,1.98
2023-03-11T21:44:13.587Z,1.80
2023-03-11T21:46:42.683Z,2.00
2023-03-11T21:49:11.820Z,3.10
2023-03-11T21:51:42.612Z,2.35
2023-03-11T21:54:13.426Z,2.47
2023-03-11T21:56:42.791Z,2.67
2023-03-11T21:59:11.931Z,2.97
2023-03-11T22:01:40.966Z,3.05
2023-03-11T22:04:10.314Z,2.75
2023-03-11T22:06:39.484Z,3.38
2023-03-11T22:09:10.213Z,2.50
2023-03-11T22:11:39.294Z,2.70
2023-03-11T22:14:08.250Z,2.90
2023-03-11T22:16:37.290Z,3.15
2023-03-11T22:19:09.519Z,3.20
2023-03-11T22:21:38.828Z,3.17
2023-03-11T22:24:09.825Z,2.65
2023-03-11T22:26:39.000Z,4.60
2023-03-11T22:29:09.028Z,3.45
2023-03-11T22:31:38.137Z,3.40
2023-03-11T22:34:07.128Z,3.05
2023-03-11T22:36:36.080Z,3.15
2023-03-11T22:39:05.726Z,3.20
2023-03-11T22:41:36.398Z,5.82
2023-03-11T22:44:05.624Z,3.97
2023-03-11T22:46:34.634Z,3.60
2023-03-11T22:49:03.670Z,3.53
2023-03-11T22:51:32.707Z,3.60
2023-03-11T22:54:01.770Z,3.72
2023-03-11T22:56:30.899Z,3.78
2023-03-11T22:59:01.604Z,3.72
2023-03-11T23:01:30.680Z,3.22
2023-03-11T23:03:59.762Z,4.10
2023-03-11T23:06:28.724Z,3.40
2023-03-11T23:08:57.700Z,3.30
2023-03-11T23:11:26.975Z,3.22
2023-03-11T23:13:57.731Z,3.47
2023-03-11T23:16:28.446Z,3.00
2023-03-11T23:18:58.063Z,2.63
2023-03-11T23:21:29.522Z,2.50
2023-03-11T23:23:59.438Z,2.38
2023-03-11T23:26:29.175Z,4.13
2023-03-11T23:28:59.280Z,3.05
2023-03-11T23:31:30.701Z,3.25
2023-03-11T23:34:00.045Z,3.00
2023-03-11T23:36:31.172Z,4.35
2023-03-11T23:39:00.177Z,2.83
2023-03-11T23:41:30.028Z,3.45
2023-03-11T23:43:59.087Z,3.42
2023-03-11T23:46:29.746Z,3.20
2023-03-11T23:48:58.789Z,2.88
2023-03-11T23:51:28.011Z,3.03
2023-03-11T23:53:56.971Z,3.63
2023-03-11T23:56:25.950Z,3.00
2023-03-11T23:58:55.009Z,3.00
